createdAt,value
2018-06-09T00:00:05.977Z,64.63
2018-06-09T00:01:07.474Z,65.30
2018-06-09T00:02:13.717Z,65.20
2018-06-09T00:03:15.102Z,65.20
2018-06-09T00:04:16.498Z,65.78
2018-06-09T00:05:18.821Z,65.75
2018-06-09T00:06:19.849Z,65.69
2018-06-09T00:07:23.576Z,65.65
2018-06-09T00:08:24.966Z,65.78
2018-06-09T00:09:26.361Z,65.65
2018-06-09T00:10:31.963Z,66.07
2018-06-09T00:11:36.944Z,65.94
2018-06-09T00:12:40.042Z,66.03
2018-06-09T00:13:47.485Z,65.94
2018-06-09T00:14:50.518Z,65.94
2018-06-09T00:16:00.197Z,65.84
2018-06-09T00:17:01.584Z,65.94
2018-06-09T00:18:08.172Z,66.13
2018-06-09T00:19:13.763Z,65.84
2018-06-09T00:20:21.019Z,65.94
2018-06-09T00:21:27.176Z,66.03
2018-06-09T00:22:33.777Z,65.94
2018-06-09T00:23:37.932Z,66.23
2018-06-09T00:24:40.831Z,66.23
2018-06-09T00:25:46.448Z,66.52
2018-06-09T00:26:47.839Z,66.33
2018-06-09T00:27:53.373Z,66.23
2018-06-09T00:28:55.065Z,66.03
2018-06-09T00:29:57.020Z,65.94
2018-06-09T00:31:00.752Z,66.23
2018-06-09T00:32:03.582Z,66.03
2018-06-09T00:33:05.618Z,65.94
2018-06-09T00:34:07.015Z,66.52
2018-06-09T00:35:08.397Z,66.33
2018-06-09T00:36:10.690Z,66.42
2018-06-09T00:37:12.548Z,66.52
2018-06-09T00:38:13.939Z,66.61
2018-06-09T00:39:15.334Z,66.61
2018-06-09T00:40:17.412Z,66.71
2018-06-09T00:41:18.799Z,66.52
2018-06-09T00:42:20.186Z,66.71
2018-06-09T00:43:21.561Z,66.80
2018-06-09T00:44:22.952Z,66.80
2018-06-09T00:45:24.338Z,66.61
2018-06-09T00:46:26.482Z,66.71
2018-06-09T00:47:27.866Z,67.29
2018-06-09T00:48:29.254Z,67.19
2018-06-09T00:49:30.654Z,67.09
2018-06-09T00:50:32.042Z,67.19
2018-06-09T00:51:33.432Z,67.00
2018-06-09T00:52:35.704Z,67.00
2018-06-09T00:53:37.109Z,66.90
2018-06-09T00:54:39.222Z,67.47
2018-06-09T00:55:40.603Z,67.38
2018-06-09T00:56:41.997Z,67.67
2018-06-09T00:57:43.383Z,67.96
2018-06-09T00:58:44.765Z,67.96
2018-06-09T00:59:46.902Z,67.86
2018-06-09T01:00:48.907Z,68.24
2018-06-09T01:01:50.293Z,68.34
2018-06-09T01:02:52.349Z,68.24
2018-06-09T01:03:54.352Z,68.63
2018-06-09T01:04:55.738Z,68.82
2018-06-09T01:05:57.123Z,69.01
2018-06-09T01:06:59.065Z,68.82
2018-06-09T01:08:01.652Z,68.63
2018-06-09T01:09:03.035Z,68.82
2018-06-09T01:10:05.032Z,68.88
2018-06-09T01:11:06.426Z,68.79
2018-06-09T01:12:07.814Z,69.56
2018-06-09T01:13:09.206Z,69.26
2018-06-09T01:14:11.285Z,69.46
2018-06-09T01:15:12.678Z,69.65
2018-06-09T01:16:14.059Z,69.74
2018-06-09T01:17:15.438Z,69.93
2018-06-09T01:18:16.819Z,69.74
2018-06-09T01:19:18.213Z,69.84
2018-06-09T01:20:19.597Z,70.13
2018-06-09T01:21:21.639Z,69.84
2018-06-09T01:22:23.017Z,70.23
2018-06-09T01:23:26.351Z,70.70
2018-06-09T01:24:29.199Z,70.51
2018-06-09T01:25:30.587Z,70.42
2018-06-09T01:26:31.976Z,70.32
2018-06-09T01:27:34.244Z,70.42
2018-06-09T01:28:35.637Z,70.90
2018-06-09T01:29:37.026Z,70.42
2018-06-09T01:30:38.976Z,70.61
2018-06-09T01:31:41.080Z,71.37
2018-06-09T01:32:43.948Z,70.90
2018-06-09T01:33:45.344Z,71.19
2018-06-09T01:34:46.736Z,71.47
2018-06-09T01:35:48.120Z,71.57
2018-06-09T01:36:49.509Z,72.05
2018-06-09T01:37:50.901Z,72.05
2018-06-09T01:38:52.311Z,71.95
2018-06-09T01:39:54.402Z,71.95
2018-06-09T01:40:55.791Z,71.86
2018-06-09T01:41:57.173Z,71.86
2018-06-09T01:42:58.557Z,71.76
2018-06-09T01:43:59.953Z,71.76
2018-06-09T01:45:01.336Z,71.66
2018-06-09T01:46:02.729Z,71.76
2018-06-09T01:47:04.105Z,71.95
2018-06-09T01:48:05.499Z,72.33
2018-06-09T01:49:06.885Z,71.82
2018-06-09T01:50:08.907Z,71.76
2018-06-09T01:51:10.279Z,71.86
2018-06-09T01:52:11.671Z,72.05
2018-06-09T01:53:14.389Z,72.53
2018-06-09T01:54:15.777Z,72.49
2018-06-09T01:55:17.159Z,72.11
2018-06-09T01:56:18.541Z,71.82
2018-06-09T01:57:19.933Z,72.11
2018-06-09T01:58:21.315Z,71.76
2018-06-09T01:59:23.544Z,72.01
2018-06-09T02:00:24.929Z,72.11
2018-06-09T02:01:26.353Z,71.72
2018-06-09T02:02:27.696Z,72.20
2018-06-09T02:03:29.088Z,72.68
2018-06-09T02:04:30.469Z,72.59
2018-06-09T02:05:31.856Z,72.49
2018-06-09T02:06:33.755Z,72.68
2018-06-09T02:07:37.585Z,72.01
2018-06-09T02:08:38.978Z,72.68
2018-06-09T02:09:40.364Z,72.68
2018-06-09T02:10:41.760Z,72.78
2018-06-09T02:11:43.156Z,72.59
2018-06-09T02:12:44.538Z,72.68
2018-06-09T02:13:46.482Z,72.49
2018-06-09T02:14:47.870Z,72.78
2018-06-09T02:15:50.613Z,72.68
2018-06-09T02:16:53.091Z,73.07
2018-06-09T02:17:55.622Z,73.07
2018-06-09T02:18:57.005Z,72.97
2018-06-09T02:19:58.395Z,73.16
2018-06-09T02:20:59.781Z,73.35
2018-06-09T02:22:01.177Z,73.07
2018-06-09T02:23:02.566Z,73.45
2018-06-09T02:24:03.955Z,73.65
2018-06-09T02:25:06.007Z,73.65
2018-06-09T02:26:07.388Z,74.12
2018-06-09T02:27:08.769Z,73.83
2018-06-09T02:28:10.806Z,74.31
2018-06-09T02:29:12.190Z,73.83
2018-06-09T02:30:13.587Z,74.31
2018-06-09T02:31:15.815Z,74.12
2018-06-09T02:32:17.191Z,73.55
2018-06-09T02:33:18.585Z,73.55
2018-06-09T02:34:19.974Z,73.65
2018-06-09T02:35:21.366Z,73.65
2018-06-09T02:36:22.759Z,73.65
2018-06-09T02:37:24.861Z,73.74
2018-06-09T02:38:26.241Z,73.65
2018-06-09T02:39:27.634Z,73.45
2018-06-09T02:40:29.019Z,73.74
2018-06-09T02:41:30.399Z,73.83
2018-06-09T02:42:31.793Z,73.93
2018-06-09T02:43:33.193Z,74.02
2018-06-09T02:44:35.231Z,73.90
2018-06-09T02:45:36.628Z,73.45
2018-06-09T02:46:39.491Z,73.93
2018-06-09T02:47:40.879Z,73.74
2018-06-09T02:48:42.260Z,74.41
2018-06-09T02:49:43.681Z,74.41
2018-06-09T02:50:45.735Z,74.69
2018-06-09T02:51:47.120Z,74.41
2018-06-09T02:52:49.068Z,74.89
2018-06-09T02:53:50.464Z,75.08
2018-06-09T02:54:51.865Z,74.69
2018-06-09T02:55:53.254Z,75.37
2018-06-09T02:56:54.641Z,75.23
2018-06-09T02:57:56.036Z,75.33
2018-06-09T02:58:57.424Z,75.56
2018-06-09T02:59:58.815Z,75.65
2018-06-09T03:01:00.201Z,75.52
2018-06-09T03:02:01.589Z,75.43
2018-06-09T03:03:02.975Z,75.46
2018-06-09T03:04:04.363Z,75.46
2018-06-09T03:05:05.760Z,75.56
2018-06-09T03:06:07.156Z,75.43
2018-06-09T03:07:09.481Z,75.75
2018-06-09T03:08:11.486Z,75.75
2018-06-09T03:09:12.872Z,75.75
2018-06-09T03:10:16.578Z,75.75
2018-06-09T03:11:20.288Z,75.75
2018-06-09T03:12:21.674Z,75.56
2018-06-09T03:13:23.996Z,75.85
2018-06-09T03:14:25.400Z,75.46
2018-06-09T03:15:27.531Z,75.37
2018-06-09T03:16:28.918Z,75.95
2018-06-09T03:17:30.305Z,75.56
2018-06-09T03:18:32.258Z,75.56
2018-06-09T03:19:34.241Z,75.85
2018-06-09T03:20:36.126Z,76.81
2018-06-09T03:21:37.516Z,76.42
2018-06-09T03:22:39.162Z,77.00
2018-06-09T03:23:40.570Z,76.90
2018-06-09T03:24:41.949Z,76.81
2018-06-09T03:25:43.344Z,76.42
2018-06-09T03:26:45.595Z,76.23
2018-06-09T03:27:46.987Z,76.62
2018-06-09T03:28:48.385Z,76.62
2018-06-09T03:29:49.767Z,76.32
2018-06-09T03:30:51.160Z,76.42
2018-06-09T03:31:55.044Z,76.32
2018-06-09T03:32:56.433Z,76.62
2018-06-09T03:33:58.674Z,76.71
2018-06-09T03:35:02.532Z,76.32
2018-06-09T03:36:03.921Z,76.32
2018-06-09T03:37:05.314Z,76.71
2018-06-09T03:38:06.701Z,76.90
2018-06-09T03:39:08.085Z,77.29
2018-06-09T03:40:09.474Z,77.19
2018-06-09T03:41:10.865Z,77.86
2018-06-09T03:42:12.254Z,77.58
2018-06-09T03:43:13.716Z,77.00
2018-06-09T03:44:15.800Z,76.90
2018-06-09T03:45:17.184Z,76.71
2018-06-09T03:46:19.264Z,76.81
2018-06-09T03:47:21.398Z,76.62
2018-06-09T03:48:25.396Z,76.52
2018-06-09T03:49:25.324Z,76.94
2018-06-09T03:50:26.714Z,75.70
2018-06-09T03:51:28.104Z,76.17
2018-06-09T03:52:29.492Z,75.89
2018-06-09T03:53:30.889Z,75.85
2018-06-09T03:54:32.279Z,75.60
2018-06-09T03:55:33.665Z,75.70
2018-06-09T03:56:35.063Z,76.07
2018-06-09T03:57:37.051Z,75.89
2018-06-09T03:58:39.071Z,75.89
2018-06-09T03:59:40.463Z,76.17
2018-06-09T04:00:41.859Z,76.07
2018-06-09T04:01:44.043Z,75.79
2018-06-09T04:02:45.995Z,76.07
2018-06-09T04:03:47.394Z,75.79
2018-06-09T04:04:48.783Z,76.07
2018-06-09T04:05:51.128Z,76.07
2018-06-09T04:06:52.522Z,75.79
2018-06-09T04:07:55.398Z,75.98
2018-06-09T04:08:57.597Z,76.17
2018-06-09T04:09:58.989Z,76.07
2018-06-09T04:11:00.384Z,75.79
2018-06-09T04:12:02.408Z,75.73
2018-06-09T04:13:03.120Z,75.54
2018-06-09T04:14:04.511Z,75.35
2018-06-09T04:15:05.906Z,75.63
2018-06-09T04:16:07.299Z,75.45
2018-06-09T04:17:09.139Z,75.45
2018-06-09T04:18:11.390Z,75.54
2018-06-09T04:19:12.789Z,75.73
2018-06-09T04:20:14.187Z,75.54
2018-06-09T04:21:15.577Z,75.63
2018-06-09T04:22:16.968Z,75.54
2018-06-09T04:23:18.363Z,75.54
2018-06-09T04:24:19.755Z,75.92
2018-06-09T04:25:21.153Z,75.73
2018-06-09T04:26:22.541Z,75.54
2018-06-09T04:27:23.941Z,75.73
2018-06-09T04:28:25.416Z,75.48
2018-06-09T04:29:27.141Z,75.29
2018-06-09T04:30:28.541Z,75.10
2018-06-09T04:31:29.971Z,74.33
2018-06-09T04:32:31.828Z,75.00
2018-06-09T04:33:33.247Z,74.43
2018-06-09T04:34:35.150Z,74.33
2018-06-09T04:35:37.954Z,74.62
2018-06-09T04:36:39.342Z,74.33
2018-06-09T04:37:40.737Z,73.98
2018-06-09T04:38:42.130Z,73.94
2018-06-09T04:39:43.555Z,73.79
2018-06-09T04:40:44.910Z,73.60
2018-06-09T04:41:46.298Z,73.60
2018-06-09T04:42:47.699Z,73.88
2018-06-09T04:43:49.091Z,73.50
2018-06-09T04:44:51.041Z,72.83
2018-06-09T04:45:52.438Z,73.02
2018-06-09T04:46:53.835Z,72.34
2018-06-09T04:47:55.236Z,71.96
2018-06-09T04:48:56.633Z,72.19
2018-06-09T04:49:58.027Z,71.71
2018-06-09T04:51:00.195Z,72.00
2018-06-09T04:52:01.586Z,71.23
2018-06-09T04:53:03.924Z,71.04
2018-06-09T04:54:05.012Z,70.78
2018-06-09T04:55:06.403Z,70.30
2018-06-09T04:56:07.795Z,69.92
2018-06-09T04:57:09.880Z,69.24
2018-06-09T04:58:12.158Z,68.76
2018-06-09T04:59:13.556Z,68.67
2018-06-09T05:00:14.948Z,68.13
2018-06-09T05:01:16.346Z,67.93
2018-06-09T05:02:18.504Z,67.55
2018-06-09T05:03:19.909Z,66.88
2018-06-09T05:04:21.303Z,67.35
2018-06-09T05:05:22.694Z,66.68
2018-06-09T05:06:24.093Z,66.42
2018-06-09T05:07:25.485Z,66.14
2018-06-09T05:08:26.881Z,65.72
2018-06-09T05:09:28.785Z,65.37
2018-06-09T05:10:30.185Z,65.46
2018-06-09T05:11:31.581Z,65.75
2018-06-09T05:12:32.981Z,65.46
2018-06-09T05:13:34.389Z,65.50
2018-06-09T05:14:35.781Z,64.63
2018-06-09T05:15:37.892Z,64.05
2018-06-09T05:16:39.280Z,64.05
2018-06-09T05:17:40.685Z,64.40
2018-06-09T05:18:43.046Z,63.95
2018-06-09T05:19:45.766Z,64.53
2018-06-09T05:20:47.166Z,64.63
2018-06-09T05:21:48.564Z,64.92
2018-06-09T05:22:49.960Z,65.01
2018-06-09T05:23:51.361Z,64.53
2018-06-09T05:24:52.750Z,65.01
2018-06-09T05:25:54.146Z,64.37
2018-06-09T05:26:55.547Z,63.98
2018-06-09T05:27:56.941Z,63.41
2018-06-09T05:28:59.270Z,63.12
2018-06-09T05:30:00.667Z,62.18
2018-06-09T05:31:02.061Z,62.48
2018-06-09T05:32:04.375Z,61.54
2018-06-09T05:33:05.774Z,60.06
2018-06-09T05:34:07.181Z,58.15
2018-06-09T05:35:08.571Z,56.40
2018-06-09T05:36:09.975Z,53.72
2018-06-09T05:37:11.369Z,51.64
2018-06-09T05:38:12.778Z,50.04
2018-06-09T05:39:14.171Z,47.96
2018-06-09T05:40:15.570Z,46.62
2018-06-09T05:41:18.249Z,45.14
2018-06-09T05:42:19.639Z,43.48
2018-06-09T05:43:21.036Z,43.01
2018-06-09T05:44:23.043Z,42.35
2018-06-09T05:45:25.408Z,41.42
2018-06-09T05:46:27.608Z,40.47
2018-06-09T05:47:29.002Z,39.22
2018-06-09T05:48:30.410Z,38.65
2018-06-09T05:49:32.643Z,37.99
2018-06-09T05:50:34.036Z,37.52
2018-06-09T05:51:36.120Z,36.94
2018-06-09T05:52:37.537Z,36.46
2018-06-09T05:53:39.574Z,36.44
2018-06-09T05:54:40.970Z,36.08
2018-06-09T05:55:42.441Z,35.21
2018-06-09T05:56:43.773Z,35.28
2018-06-09T05:57:45.921Z,35.52
2018-06-09T05:58:47.333Z,34.64
2018-06-09T05:59:49.453Z,35.11
2018-06-09T06:00:50.857Z,35.13
2018-06-09T06:01:52.260Z,34.74
2018-06-09T06:02:54.211Z,34.69
2018-06-09T06:03:55.633Z,32.92
2018-06-09T06:04:57.031Z,32.74
2018-06-09T06:05:58.433Z,32.56
2018-06-09T06:06:59.849Z,31.70
2018-06-09T06:08:01.269Z,31.20
2018-06-09T06:09:02.685Z,31.40
2018-06-09T06:10:05.070Z,31.12
2018-06-09T06:11:06.481Z,30.45
2018-06-09T06:12:07.898Z,30.66
2018-06-09T06:13:09.300Z,29.99
2018-06-09T06:14:11.547Z,29.51
2018-06-09T06:15:12.950Z,29.11
2018-06-09T06:16:14.369Z,29.51
2018-06-09T06:17:15.782Z,28.34
2018-06-09T06:18:17.186Z,28.16
2018-06-09T06:19:18.600Z,27.96
2018-06-09T06:20:20.008Z,28.36
2018-06-09T06:21:22.214Z,28.06
2018-06-09T06:22:23.630Z,28.17
2018-06-09T06:23:25.049Z,28.24
2018-06-09T06:24:26.444Z,28.72
2018-06-09T06:25:27.861Z,29.41
2018-06-09T06:26:29.915Z,29.89
2018-06-09T06:27:31.328Z,30.36
2018-06-09T06:28:32.744Z,31.02
2018-06-09T06:29:35.475Z,31.71
2018-06-09T06:30:36.089Z,32.46
2018-06-09T06:31:37.492Z,32.34
2018-06-09T06:32:39.410Z,34.06
2018-06-09T06:33:40.812Z,34.84
2018-06-09T06:34:42.919Z,35.14
2018-06-09T06:35:44.323Z,35.79
2018-06-09T06:36:45.739Z,36.47
2018-06-09T06:37:47.149Z,36.87
2018-06-09T06:38:48.575Z,37.04
2018-06-09T06:39:49.985Z,37.81
2018-06-09T06:40:53.196Z,38.01
2018-06-09T06:41:55.355Z,38.20
2018-06-09T06:42:56.772Z,38.69
2018-06-09T06:43:58.717Z,39.16
2018-06-09T06:45:00.177Z,39.06
2018-06-09T06:46:01.552Z,39.16
2018-06-09T06:47:03.765Z,39.92
2018-06-09T06:48:05.177Z,40.01
2018-06-09T06:49:06.591Z,39.92
2018-06-09T06:50:08.666Z,40.48
2018-06-09T06:51:10.079Z,40.50
2018-06-09T06:52:11.488Z,40.31
2018-06-09T06:53:12.890Z,41.17
2018-06-09T06:54:14.981Z,40.19
2018-06-09T06:55:16.959Z,41.07
2018-06-09T06:56:19.738Z,40.58
2018-06-09T06:57:22.579Z,40.86
2018-06-09T06:58:23.983Z,41.56
2018-06-09T06:59:25.379Z,41.36
2018-06-09T07:00:26.787Z,41.44
2018-06-09T07:01:28.193Z,41.07
2018-06-09T07:02:29.605Z,41.09
2018-06-09T07:03:32.285Z,40.60
2018-06-09T07:04:33.699Z,41.07
2018-06-09T07:05:35.855Z,40.89
2018-06-09T07:06:37.262Z,41.17
2018-06-09T07:07:38.662Z,41.17
2018-06-09T07:08:40.065Z,41.07
2018-06-09T07:09:41.475Z,40.97
2018-06-09T07:10:42.875Z,40.47
2018-06-09T07:11:44.283Z,40.93
2018-06-09T07:12:45.711Z,40.64
2018-06-09T07:13:47.113Z,40.55
2018-06-09T07:14:48.521Z,41.61
2018-06-09T07:15:50.703Z,42.79
2018-06-09T07:16:52.113Z,42.40
2018-06-09T07:17:54.338Z,41.91
2018-06-09T07:18:55.750Z,41.40
2018-06-09T07:19:57.156Z,41.89
2018-06-09T07:20:58.553Z,41.86
2018-06-09T07:21:59.959Z,41.57
2018-06-09T07:23:01.371Z,41.67
2018-06-09T07:24:02.783Z,41.48
2018-06-09T07:25:04.187Z,42.16
2018-06-09T07:26:05.587Z,41.96
2018-06-09T07:27:06.990Z,41.99
2018-06-09T07:28:08.403Z,42.57
2018-06-09T07:29:11.099Z,42.18
2018-06-09T07:30:12.497Z,42.18
2018-06-09T07:31:13.901Z,42.08
2018-06-09T07:32:15.299Z,42.38
2018-06-09T07:33:16.705Z,42.18
2018-06-09T07:34:18.107Z,42.18
2018-06-09T07:35:19.505Z,41.79
2018-06-09T07:36:20.906Z,41.50
2018-06-09T07:37:22.316Z,41.40
2018-06-09T07:38:23.722Z,41.79
2018-06-09T07:39:25.125Z,40.23
2018-06-09T07:40:26.540Z,40.03
2018-06-09T07:41:27.938Z,39.06
2018-06-09T07:42:29.338Z,38.38
2018-06-09T07:43:30.746Z,38.96
2018-06-09T07:44:32.156Z,39.94
2018-06-09T07:45:33.566Z,39.84
2018-06-09T07:46:34.979Z,39.55
2018-06-09T07:47:37.178Z,39.37
2018-06-09T07:48:38.590Z,37.52
2018-06-09T07:49:39.989Z,37.73
2018-06-09T07:50:41.389Z,36.66
2018-06-09T07:51:42.790Z,37.25
2018-06-09T07:52:44.192Z,36.88
2018-06-09T07:53:45.619Z,36.78
2018-06-09T07:54:47.028Z,36.49
2018-06-09T07:55:48.430Z,36.88
2018-06-09T07:56:49.832Z,36.10
2018-06-09T07:57:51.232Z,36.51
2018-06-09T07:58:52.643Z,36.51
2018-06-09T07:59:54.854Z,36.41
2018-06-09T08:00:56.252Z,36.31
2018-06-09T08:01:57.649Z,36.21
2018-06-09T08:02:59.049Z,35.43
2018-06-09T08:04:00.449Z,36.41
2018-06-09T08:05:01.865Z,36.60
2018-06-09T08:06:03.266Z,36.90
2018-06-09T08:07:04.668Z,36.02
2018-06-09T08:08:06.063Z,35.82
2018-06-09T08:09:07.472Z,36.02
2018-06-09T08:10:08.873Z,36.11
2018-06-09T08:11:10.274Z,36.11
2018-06-09T08:12:11.673Z,35.72
2018-06-09T08:13:13.076Z,35.53
2018-06-09T08:14:14.474Z,35.74
2018-06-09T08:15:16.423Z,35.25
2018-06-09T08:16:17.826Z,35.36
2018-06-09T08:17:19.223Z,34.39
2018-06-09T08:18:20.620Z,33.11
2018-06-09T08:19:22.070Z,33.22
2018-06-09T08:20:23.418Z,33.02
2018-06-09T08:21:24.830Z,33.61
2018-06-09T08:22:26.240Z,33.12
2018-06-09T08:23:27.632Z,33.14
2018-06-09T08:24:29.041Z,33.02
2018-06-09T08:25:30.465Z,32.43
2018-06-09T08:26:31.855Z,33.62
2018-06-09T08:27:33.255Z,33.70
2018-06-09T08:28:34.664Z,34.19
2018-06-09T08:29:36.067Z,33.51
2018-06-09T08:30:37.472Z,34.21
2018-06-09T08:31:38.884Z,33.22
2018-06-09T08:32:40.345Z,32.16
2018-06-09T08:33:41.749Z,31.46
2018-06-09T08:34:43.945Z,31.28
2018-06-09T08:35:45.355Z,32.55
2018-06-09T08:36:47.460Z,32.27
2018-06-09T08:37:48.870Z,30.88
2018-06-09T08:38:50.260Z,31.67
2018-06-09T08:39:51.678Z,31.48
2018-06-09T08:40:53.088Z,31.96
2018-06-09T08:41:54.534Z,32.16
2018-06-09T08:42:55.892Z,31.95
2018-06-09T08:43:57.317Z,32.26
2018-06-09T08:44:58.712Z,32.16
2018-06-09T08:46:00.126Z,32.26
2018-06-09T08:47:01.532Z,31.87
2018-06-09T08:48:02.933Z,32.06
2018-06-09T08:49:04.340Z,31.98
2018-06-09T08:50:05.751Z,31.59
2018-06-09T08:51:07.140Z,31.59
2018-06-09T08:52:08.542Z,31.68
2018-06-09T08:53:09.945Z,31.88
2018-06-09T08:54:11.347Z,30.40
2018-06-09T08:55:12.748Z,30.71
2018-06-09T08:56:14.159Z,31.20
2018-06-09T08:57:15.556Z,31.00
2018-06-09T08:58:16.967Z,29.63
2018-06-09T08:59:18.355Z,29.24
2018-06-09T09:00:19.772Z,29.93
2018-06-09T09:01:21.167Z,28.75
2018-06-09T09:02:22.569Z,27.87
2018-06-09T09:03:23.965Z,29.04
2018-06-09T09:04:25.371Z,29.53
2018-06-09T09:05:26.779Z,29.83
2018-06-09T09:06:28.793Z,29.73
2018-06-09T09:07:30.190Z,29.24
2018-06-09T09:08:31.550Z,29.73
2018-06-09T09:09:32.969Z,29.63
2018-06-09T09:10:34.382Z,28.75
2018-06-09T09:11:35.790Z,27.97
2018-06-09T09:12:37.194Z,28.16
2018-06-09T09:13:38.609Z,28.16
2018-06-09T09:14:40.003Z,28.45
2018-06-09T09:15:41.412Z,28.94
2018-06-09T09:16:42.817Z,28.45
2018-06-09T09:17:44.233Z,28.94
2018-06-09T09:18:45.653Z,28.75
2018-06-09T09:19:47.051Z,28.55
2018-06-09T09:20:48.441Z,28.55
2018-06-09T09:21:49.844Z,29.04
2018-06-09T09:22:51.243Z,28.75
2018-06-09T09:23:52.635Z,28.77
2018-06-09T09:24:54.045Z,27.09
2018-06-09T09:25:55.465Z,28.16
2018-06-09T09:26:56.858Z,27.09
2018-06-09T09:27:58.286Z,26.79
2018-06-09T09:28:59.699Z,25.05
2018-06-09T09:30:01.095Z,24.54
2018-06-09T09:31:03.161Z,23.57
2018-06-09T09:32:04.625Z,24.35
2018-06-09T09:33:05.969Z,24.64
2018-06-09T09:34:07.370Z,24.95
2018-06-09T09:35:08.786Z,25.05
2018-06-09T09:36:10.193Z,25.34
2018-06-09T09:37:12.220Z,25.54
2018-06-09T09:38:13.614Z,25.52
2018-06-09T09:39:15.013Z,25.83
2018-06-09T09:40:16.419Z,25.54
2018-06-09T09:41:17.820Z,25.93
2018-06-09T09:42:19.228Z,25.06
2018-06-09T09:43:20.624Z,24.86
2018-06-09T09:44:22.029Z,25.24
2018-06-09T09:45:23.431Z,25.74
2018-06-09T09:46:24.892Z,25.44
2018-06-09T09:47:26.233Z,25.35
2018-06-09T09:48:27.643Z,25.93
2018-06-09T09:49:29.035Z,25.34
2018-06-09T09:50:30.446Z,25.63
2018-06-09T09:51:31.852Z,26.42
2018-06-09T09:52:33.250Z,26.03
2018-06-09T09:53:34.649Z,26.22
2018-06-09T09:54:36.051Z,26.51
2018-06-09T09:55:37.449Z,26.42
2018-06-09T09:56:38.864Z,25.93
2018-06-09T09:57:40.268Z,26.01
2018-06-09T09:58:41.670Z,25.52
2018-06-09T09:59:43.084Z,25.43
2018-06-09T10:00:44.478Z,26.01
2018-06-09T10:01:45.883Z,25.93
2018-06-09T10:02:47.286Z,25.73
2018-06-09T10:03:48.690Z,25.83
2018-06-09T10:04:50.106Z,25.24
2018-06-09T10:05:51.508Z,25.15
2018-06-09T10:06:52.906Z,25.34
2018-06-09T10:07:54.314Z,25.73
2018-06-09T10:08:55.724Z,25.63
2018-06-09T10:09:57.126Z,26.22
2018-06-09T10:10:58.532Z,26.03
2018-06-09T10:11:59.948Z,26.42
2018-06-09T10:13:01.336Z,26.60
2018-06-09T10:14:02.737Z,26.50
2018-06-09T10:15:04.129Z,26.60
2018-06-09T10:16:05.531Z,26.99
2018-06-09T10:17:07.559Z,27.29
2018-06-09T10:18:08.956Z,29.64
2018-06-09T10:19:10.373Z,29.53
2018-06-09T10:20:11.773Z,28.65
2018-06-09T10:21:13.177Z,33.25
2018-06-09T10:22:14.581Z,32.37
2018-06-09T10:23:15.999Z,32.56
2018-06-09T10:24:17.403Z,30.69
2018-06-09T10:25:18.794Z,31.67
2018-06-09T10:26:20.203Z,32.16
2018-06-09T10:27:21.608Z,34.48
2018-06-09T10:28:23.015Z,33.92
2018-06-09T10:29:24.420Z,32.55
2018-06-09T10:30:25.832Z,30.77
2018-06-09T10:31:27.226Z,31.65
2018-06-09T10:32:28.647Z,32.43
2018-06-09T10:33:30.052Z,33.51
2018-06-09T10:34:31.450Z,30.87
2018-06-09T10:35:32.864Z,32.34
2018-06-09T10:36:34.270Z,31.56
2018-06-09T10:37:35.676Z,28.82
2018-06-09T10:38:37.133Z,32.14
2018-06-09T10:39:38.478Z,32.42
2018-06-09T10:40:39.881Z,32.23
2018-06-09T10:41:41.280Z,30.37
2018-06-09T10:42:42.677Z,30.08
2018-06-09T10:43:44.091Z,29.80
2018-06-09T10:44:45.479Z,31.16
2018-06-09T10:45:46.890Z,31.26
2018-06-09T10:46:48.287Z,34.29
2018-06-09T10:47:49.691Z,32.24
2018-06-09T10:48:51.093Z,34.86
2018-06-09T10:49:52.491Z,33.69
2018-06-09T10:50:53.897Z,33.01
2018-06-09T10:51:55.300Z,33.69
2018-06-09T10:52:56.694Z,33.59
2018-06-09T10:53:58.098Z,33.67
2018-06-09T10:54:59.507Z,35.04
2018-06-09T10:56:00.952Z,34.06
2018-06-09T10:57:02.350Z,34.14
2018-06-09T10:58:03.754Z,33.46
2018-06-09T10:59:05.155Z,33.36
2018-06-09T11:00:06.552Z,34.05
2018-06-09T11:01:07.966Z,36.68
2018-06-09T11:02:09.368Z,34.83
2018-06-09T11:03:10.770Z,33.06
2018-06-09T11:04:12.174Z,32.29
2018-06-09T11:05:13.586Z,31.41
2018-06-09T11:06:14.976Z,33.46
2018-06-09T11:07:16.386Z,33.36
2018-06-09T11:08:17.893Z,32.58
2018-06-09T11:09:19.309Z,34.44
2018-06-09T11:10:20.702Z,33.75
2018-06-09T11:11:22.103Z,31.41
2018-06-09T11:12:23.503Z,30.34
2018-06-09T11:13:24.857Z,31.22
2018-06-09T11:14:26.261Z,29.66
2018-06-09T11:15:27.654Z,28.69
2018-06-09T11:16:29.056Z,28.50
2018-06-09T11:17:30.460Z,28.59
2018-06-09T11:18:31.863Z,27.93
2018-06-09T11:19:33.216Z,26.87
2018-06-09T11:20:34.619Z,26.67
2018-06-09T11:21:36.016Z,26.87
2018-06-09T11:22:37.421Z,27.06
2018-06-09T11:23:38.819Z,26.77
2018-06-09T11:24:40.226Z,27.16
2018-06-09T11:25:41.633Z,27.08
2018-06-09T11:26:43.043Z,27.08
2018-06-09T11:27:44.442Z,25.72
2018-06-09T11:28:45.838Z,26.11
2018-06-09T11:29:47.245Z,25.83
2018-06-09T11:30:48.645Z,25.05
2018-06-09T11:31:50.039Z,25.15
2018-06-09T11:32:51.495Z,24.96
2018-06-09T11:33:52.852Z,24.86
2018-06-09T11:34:54.253Z,25.06
2018-06-09T11:35:55.659Z,24.09
2018-06-09T11:36:57.023Z,24.19
2018-06-09T11:37:58.430Z,24.09
2018-06-09T11:38:59.835Z,24.40
2018-06-09T11:40:01.246Z,23.72
2018-06-09T11:41:02.645Z,24.22
2018-06-09T11:42:04.070Z,23.35
2018-06-09T11:43:05.456Z,22.96
2018-06-09T11:44:06.862Z,22.67
2018-06-09T11:45:08.261Z,22.38
2018-06-09T11:46:09.660Z,22.28
2018-06-09T11:47:11.088Z,22.59
2018-06-09T11:48:12.429Z,21.50
2018-06-09T11:49:13.847Z,21.40
2018-06-09T11:50:15.248Z,22.19
2018-06-09T11:51:16.652Z,22.19
2018-06-09T11:52:18.063Z,21.49
2018-06-09T11:53:19.464Z,21.98
2018-06-09T11:54:20.877Z,22.30
2018-06-09T11:55:22.274Z,22.20
2018-06-09T11:56:23.688Z,21.22
2018-06-09T11:57:25.086Z,21.90
2018-06-09T11:58:26.494Z,21.61
2018-06-09T11:59:27.897Z,22.08
2018-06-09T12:00:29.294Z,22.56
2018-06-09T12:01:30.709Z,22.66
2018-06-09T12:02:32.108Z,22.64
2018-06-09T12:03:33.520Z,23.52
2018-06-09T12:04:34.919Z,23.70
2018-06-09T12:05:36.343Z,23.31
2018-06-09T12:06:37.731Z,23.60
2018-06-09T12:07:39.121Z,23.80
2018-06-09T12:08:40.532Z,22.73
2018-06-09T12:09:41.935Z,22.66
2018-06-09T12:10:43.339Z,21.59
2018-06-09T12:11:44.750Z,21.29
2018-06-09T12:12:46.155Z,21.12
2018-06-09T12:13:47.559Z,20.54
2018-06-09T12:14:48.960Z,20.25
2018-06-09T12:15:50.369Z,19.67
2018-06-09T12:16:51.770Z,19.29
2018-06-09T12:17:53.191Z,19.78
2018-06-09T12:18:54.598Z,19.69
2018-06-09T12:19:56.004Z,18.21
2018-06-09T12:20:57.410Z,19.10
2018-06-09T12:21:58.818Z,19.00
2018-06-09T12:23:00.216Z,18.90
2018-06-09T12:24:01.625Z,19.59
2018-06-09T12:25:03.055Z,18.41
2018-06-09T12:26:04.440Z,18.31
2018-06-09T12:27:05.846Z,18.79
2018-06-09T12:28:07.250Z,18.76
2018-06-09T12:29:08.650Z,20.42
2018-06-09T12:30:10.050Z,20.69
2018-06-09T12:31:11.448Z,21.86
2018-06-09T12:32:12.859Z,22.35
2018-06-09T12:33:14.256Z,22.94
2018-06-09T12:34:15.663Z,22.74
2018-06-09T12:35:17.068Z,22.95
2018-06-09T12:36:18.469Z,22.56
2018-06-09T12:37:19.865Z,22.20
2018-06-09T12:38:21.274Z,21.22
2018-06-09T12:39:22.688Z,20.35
2018-06-09T12:40:24.083Z,20.09
2018-06-09T12:41:25.482Z,20.60
2018-06-09T12:42:26.890Z,19.62
2018-06-09T12:43:28.298Z,18.93
2018-06-09T12:44:29.708Z,19.03
2018-06-09T12:45:31.107Z,19.61
2018-06-09T12:46:32.516Z,19.70
2018-06-09T12:47:33.914Z,20.39
2018-06-09T12:48:35.400Z,20.96
2018-06-09T12:49:36.722Z,20.95
2018-06-09T12:50:38.126Z,21.33
2018-06-09T12:51:39.519Z,22.11
2018-06-09T12:52:40.924Z,22.20
2018-06-09T12:53:42.331Z,22.49
2018-06-09T12:54:43.735Z,22.09
2018-06-09T12:55:45.135Z,22.67
2018-06-09T12:56:46.532Z,22.37
2018-06-09T12:57:47.961Z,22.17
2018-06-09T12:58:49.376Z,21.87
2018-06-09T12:59:50.777Z,22.26
2018-06-09T13:00:52.188Z,22.56
2018-06-09T13:01:53.589Z,21.97
2018-06-09T13:02:55.003Z,22.16
2018-06-09T13:03:56.398Z,21.47
2018-06-09T13:04:57.805Z,22.06
2018-06-09T13:05:59.199Z,21.95
2018-06-09T13:07:00.603Z,22.63
2018-06-09T13:08:02.007Z,22.81
2018-06-09T13:09:03.413Z,23.80
2018-06-09T13:10:04.817Z,22.52
2018-06-09T13:11:06.215Z,22.52
2018-06-09T13:12:07.610Z,22.62
2018-06-09T13:13:09.011Z,22.23